sensor_id;sensor_type;location;lat;lon;timestamp;temperature;humidity
40255;DHT22;25973;52.368;4.940;2023-06-14T00:01:01;20.70;99.90
40255;DHT22;25973;52.368;4.940;2023-06-14T00:03:28;20.70;99.90
40255;DHT22;25973;52.368;4.940;2023-06-14T00:05:54;20.60;99.90
40255;DHT22;25973;52.368;4.940;2023-06-14T00:08:20;20.60;99.90
40255;DHT22;25973;52.368;4.940;2023-06-14T00:10:48;20.50;99.90
40255;DHT22;25973;52.368;4.940;2023-06-14T00:13:14;20.50;99.90
40255;DHT22;25973;52.368;4.940;2023-06-14T00:15:39;20.40;99.90
40255;DHT22;25973;52.368;4.940;2023-06-14T00:18:05;20.40;99.90
40255;DHT22;25973;52.368;4.940;2023-06-14T00:20:32;20.40;99.90
40255;DHT22;25973;52.368;4.940;2023-06-14T00:23:01;20.40;99.90
40255;DHT22;25973;52.368;4.940;2023-06-14T00:25:27;20.30;99.90
40255;DHT22;25973;52.368;4.940;2023-06-14T00:27:54;20.20;99.90
40255;DHT22;25973;52.368;4.940;2023-06-14T00:30:20;20.20;99.90
40255;DHT22;25973;52.368;4.940;2023-06-14T00:32:46;20.10;99.90
40255;DHT22;25973;52.368;4.940;2023-06-14T00:35:12;20.10;99.90
40255;DHT22;25973;52.368;4.940;2023-06-14T00:37:38;20.00;99.90
40255;DHT22;25973;52.368;4.940;2023-06-14T00:40:05;20.00;99.90
40255;DHT22;25973;52.368;4.940;2023-06-14T00:42:33;20.00;99.90
40255;DHT22;25973;52.368;4.940;2023-06-14T00:45:00;20.00;99.90
40255;DHT22;25973;52.368;4.940;2023-06-14T00:47:26;19.90;99.90
40255;DHT22;25973;52.368;4.940;2023-06-14T00:49:53;19.90;99.90
40255;DHT22;25973;52.368;4.940;2023-06-14T00:52:19;19.80;99.90
40255;DHT22;25973;52.368;4.940;2023-06-14T00:54:46;19.80;99.90
40255;DHT22;25973;52.368;4.940;2023-06-14T00:57:12;19.80;99.90
40255;DHT22;25973;52.368;4.940;2023-06-14T00:59:44;19.80;99.90
40255;DHT22;25973;52.368;4.940;2023-06-14T01:02:11;19.80;99.90
40255;DHT22;25973;52.368;4.940;2023-06-14T01:04:37;19.80;99.90
40255;DHT22;25973;52.368;4.940;2023-06-14T01:12:52;19.80;99.90
40255;DHT22;25973;52.368;4.940;2023-06-14T01:15:22;19.70;99.90
40255;DHT22;25973;52.368;4.940;2023-06-14T01:17:49;19.70;99.90
40255;DHT22;25973;52.368;4.940;2023-06-14T01:20:17;19.60;99.90
40255;DHT22;25973;52.368;4.940;2023-06-14T01:22:52;19.70;99.90
40255;DHT22;25973;52.368;4.940;2023-06-14T01:25:21;19.60;99.90
40255;DHT22;25973;52.368;4.940;2023-06-14T01:30:23;19.60;99.90
40255;DHT22;25973;52.368;4.940;2023-06-14T01:32:51;19.60;99.90
40255;DHT22;25973;52.368;4.940;2023-06-14T01:35:17;19.60;99.90
40255;DHT22;25973;52.368;4.940;2023-06-14T01:37:43;19.60;99.90
40255;DHT22;25973;52.368;4.940;2023-06-14T01:40:10;19.60;99.90
40255;DHT22;25973;52.368;4.940;2023-06-14T01:42:38;19.60;99.90
40255;DHT22;25973;52.368;4.940;2023-06-14T01:45:05;19.60;99.90
40255;DHT22;25973;52.368;4.940;2023-06-14T01:47:32;19.60;99.90
40255;DHT22;25973;52.368;4.940;2023-06-14T01:49:59;19.60;99.90
40255;DHT22;25973;52.368;4.940;2023-06-14T01:52:24;19.50;99.90
40255;DHT22;25973;52.368;4.940;2023-06-14T01:54:51;19.50;99.90
40255;DHT22;25973;52.368;4.940;2023-06-14T01:57:16;19.50;99.90
40255;DHT22;25973;52.368;4.940;2023-06-14T01:59:42;19.50;99.90
40255;DHT22;25973;52.368;4.940;2023-06-14T02:02:07;19.50;99.90
40255;DHT22;25973;52.368;4.940;2023-06-14T02:04:33;19.50;99.90
40255;DHT22;25973;52.368;4.940;2023-06-14T02:06:59;19.50;99.90
40255;DHT22;25973;52.368;4.940;2023-06-14T02:09:25;19.40;99.90
40255;DHT22;25973;52.368;4.940;2023-06-14T02:11:50;19.40;99.90
40255;DHT22;25973;52.368;4.940;2023-06-14T02:14:16;19.40;99.90
40255;DHT22;25973;52.368;4.940;2023-06-14T02:16:42;19.50;99.90
40255;DHT22;25973;52.368;4.940;2023-06-14T02:19:17;19.50;99.90
40255;DHT22;25973;52.368;4.940;2023-06-14T02:21:44;19.40;99.90
40255;DHT22;25973;52.368;4.940;2023-06-14T02:24:09;19.40;99.90
40255;DHT22;25973;52.368;4.940;2023-06-14T02:26:35;19.40;99.90
40255;DHT22;25973;52.368;4.940;2023-06-14T02:29:03;19.40;99.90
40255;DHT22;25973;52.368;4.940;2023-06-14T02:31:29;19.30;99.90
40255;DHT22;25973;52.368;4.940;2023-06-14T02:33:55;19.30;99.90
40255;DHT22;25973;52.368;4.940;2023-06-14T02:36:20;19.20;99.90
40255;DHT22;25973;52.368;4.940;2023-06-14T02:38:46;19.20;99.90
40255;DHT22;25973;52.368;4.940;2023-06-14T02:41:12;19.20;99.90
40255;DHT22;25973;52.368;4.940;2023-06-14T02:43:37;19.20;99.90
40255;DHT22;25973;52.368;4.940;2023-06-14T02:46:03;19.10;99.90
40255;DHT22;25973;52.368;4.940;2023-06-14T02:48:29;19.10;99.90
40255;DHT22;25973;52.368;4.940;2023-06-14T02:50:55;19.00;99.90
40255;DHT22;25973;52.368;4.940;2023-06-14T02:53:21;18.90;99.90
40255;DHT22;25973;52.368;4.940;2023-06-14T02:55:47;18.80;99.90
40255;DHT22;25973;52.368;4.940;2023-06-14T02:58:13;18.80;99.90
40255;DHT22;25973;52.368;4.940;2023-06-14T03:00:39;18.70;99.90
40255;DHT22;25973;52.368;4.940;2023-06-14T03:03:06;18.60;99.90
40255;DHT22;25973;52.368;4.940;2023-06-14T03:05:45;18.60;99.90
40255;DHT22;25973;52.368;4.940;2023-06-14T03:08:13;18.60;99.90
40255;DHT22;25973;52.368;4.940;2023-06-14T03:10:43;18.50;99.90
40255;DHT22;25973;52.368;4.940;2023-06-14T03:13:09;18.50;99.90
40255;DHT22;25973;52.368;4.940;2023-06-14T03:15:36;18.50;99.90
40255;DHT22;25973;52.368;4.940;2023-06-14T03:18:01;18.40;99.90
40255;DHT22;25973;52.368;4.940;2023-06-14T03:20:27;18.30;99.90
40255;DHT22;25973;52.368;4.940;2023-06-14T03:22:55;18.30;99.90
40255;DHT22;25973;52.368;4.940;2023-06-14T03:25:20;18.20;99.90
40255;DHT22;25973;52.368;4.940;2023-06-14T03:27:47;18.20;99.90
40255;DHT22;25973;52.368;4.940;2023-06-14T03:30:13;18.10;99.90
40255;DHT22;25973;52.368;4.940;2023-06-14T03:32:39;18.20;99.90
40255;DHT22;25973;52.368;4.940;2023-06-14T03:35:05;18.10;99.90
40255;DHT22;25973;52.368;4.940;2023-06-14T03:37:30;18.10;99.90
40255;DHT22;25973;52.368;4.940;2023-06-14T03:39:56;18.10;99.90
40255;DHT22;25973;52.368;4.940;2023-06-14T03:42:22;18.20;99.90
40255;DHT22;25973;52.368;4.940;2023-06-14T03:44:47;18.20;99.90
40255;DHT22;25973;52.368;4.940;2023-06-14T03:47:13;18.10;99.90
40255;DHT22;25973;52.368;4.940;2023-06-14T03:49:38;18.10;99.90
40255;DHT22;25973;52.368;4.940;2023-06-14T03:52:04;18.10;99.90
40255;DHT22;25973;52.368;4.940;2023-06-14T03:54:33;18.10;99.90
40255;DHT22;25973;52.368;4.940;2023-06-14T03:56:59;18.10;99.90
40255;DHT22;25973;52.368;4.940;2023-06-14T03:59:25;18.10;99.90
40255;DHT22;25973;52.368;4.940;2023-06-14T04:01:51;18.00;99.90
40255;DHT22;25973;52.368;4.940;2023-06-14T04:04:17;18.00;99.90
40255;DHT22;25973;52.368;4.940;2023-06-14T04:06:43;18.00;99.90
40255;DHT22;25973;52.368;4.940;2023-06-14T04:09:09;18.00;99.90
40255;DHT22;25973;52.368;4.940;2023-06-14T04:11:34;18.00;99.90
40255;DHT22;25973;52.368;4.940;2023-06-14T04:14:01;17.90;99.90
40255;DHT22;25973;52.368;4.940;2023-06-14T04:16:27;17.90;99.90
40255;DHT22;25973;52.368;4.940;2023-06-14T04:18:56;18.00;99.90
40255;DHT22;25973;52.368;4.940;2023-06-14T04:21:23;17.90;99.90
40255;DHT22;25973;52.368;4.940;2023-06-14T04:23:49;17.90;99.90
40255;DHT22;25973;52.368;4.940;2023-06-14T04:26:18;17.90;99.90
40255;DHT22;25973;52.368;4.940;2023-06-14T04:28:45;17.90;99.90
40255;DHT22;25973;52.368;4.940;2023-06-14T04:31:12;17.80;99.90
40255;DHT22;25973;52.368;4.940;2023-06-14T04:33:38;17.90;99.90
40255;DHT22;25973;52.368;4.940;2023-06-14T04:36:12;17.90;99.90
40255;DHT22;25973;52.368;4.940;2023-06-14T04:38:39;18.00;99.90
40255;DHT22;25973;52.368;4.940;2023-06-14T04:41:05;18.00;99.90
40255;DHT22;25973;52.368;4.940;2023-06-14T04:43:31;18.00;99.90
40255;DHT22;25973;52.368;4.940;2023-06-14T04:46:02;18.00;99.90
40255;DHT22;25973;52.368;4.940;2023-06-14T04:48:28;18.10;99.90
40255;DHT22;25973;52.368;4.940;2023-06-14T04:50:54;18.10;99.90
40255;DHT22;25973;52.368;4.940;2023-06-14T04:53:20;18.10;99.90
40255;DHT22;25973;52.368;4.940;2023-06-14T04:55:48;18.10;99.90
40255;DHT22;25973;52.368;4.940;2023-06-14T04:58:14;18.10;99.90
40255;DHT22;25973;52.368;4.940;2023-06-14T05:00:39;18.10;99.90
40255;DHT22;25973;52.368;4.940;2023-06-14T05:03:06;18.20;99.90
40255;DHT22;25973;52.368;4.940;2023-06-14T05:05:33;18.30;99.90
40255;DHT22;25973;52.368;4.940;2023-06-14T05:07:58;18.30;99.90
40255;DHT22;25973;52.368;4.940;2023-06-14T05:10:24;18.40;99.90
40255;DHT22;25973;52.368;4.940;2023-06-14T05:12:50;18.40;99.90
40255;DHT22;25973;52.368;4.940;2023-06-14T05:15:15;18.40;99.90
40255;DHT22;25973;52.368;4.940;2023-06-14T05:17:41;18.50;99.90
40255;DHT22;25973;52.368;4.940;2023-06-14T05:20:08;18.50;99.90
40255;DHT22;25973;52.368;4.940;2023-06-14T05:22:35;18.60;99.90
40255;DHT22;25973;52.368;4.940;2023-06-14T05:25:01;18.60;99.90
40255;DHT22;25973;52.368;4.940;2023-06-14T05:27:27;18.60;99.90
40255;DHT22;25973;52.368;4.940;2023-06-14T05:29:52;18.60;99.90
40255;DHT22;25973;52.368;4.940;2023-06-14T05:32:21;18.70;99.90
40255;DHT22;25973;52.368;4.940;2023-06-14T05:34:46;18.70;99.90
40255;DHT22;25973;52.368;4.940;2023-06-14T05:37:12;18.80;99.90
40255;DHT22;25973;52.368;4.940;2023-06-14T05:39:38;18.90;99.90
40255;DHT22;25973;52.368;4.940;2023-06-14T05:42:04;18.90;99.90
40255;DHT22;25973;52.368;4.940;2023-06-14T05:44:29;19.00;99.90
40255;DHT22;25973;52.368;4.940;2023-06-14T05:46:55;19.00;99.90
40255;DHT22;25973;52.368;4.940;2023-06-14T05:49:21;19.00;99.90
40255;DHT22;25973;52.368;4.940;2023-06-14T05:51:46;19.10;99.90
40255;DHT22;25973;52.368;4.940;2023-06-14T05:54:13;19.20;99.90
40255;DHT22;25973;52.368;4.940;2023-06-14T05:56:38;19.20;99.90
40255;DHT22;25973;52.368;4.940;2023-06-14T05:59:04;19.30;99.90
40255;DHT22;25973;52.368;4.940;2023-06-14T06:01:29;19.30;99.90
40255;DHT22;25973;52.368;4.940;2023-06-14T06:03:55;19.50;99.90
40255;DHT22;25973;52.368;4.940;2023-06-14T06:06:22;19.60;99.90
40255;DHT22;25973;52.368;4.940;2023-06-14T06:08:47;19.70;99.90
40255;DHT22;25973;52.368;4.940;2023-06-14T06:11:13;20.00;99.90
40255;DHT22;25973;52.368;4.940;2023-06-14T06:13:38;20.20;99.90
40255;DHT22;25973;52.368;4.940;2023-06-14T06:16:04;20.30;99.90
40255;DHT22;25973;52.368;4.940;2023-06-14T06:18:33;20.50;99.50
40255;DHT22;25973;52.368;4.940;2023-06-14T06:20:59;20.50;99.40
40255;DHT22;25973;52.368;4.940;2023-06-14T06:23:25;21.00;99.70
40255;DHT22;25973;52.368;4.940;2023-06-14T06:25:50;21.70;98.20
40255;DHT22;25973;52.368;4.940;2023-06-14T06:28:16;22.60;97.00
40255;DHT22;25973;52.368;4.940;2023-06-14T06:30:42;23.40;95.70
40255;DHT22;25973;52.368;4.940;2023-06-14T06:33:08;24.00;94.70
40255;DHT22;25973;52.368;4.940;2023-06-14T06:35:33;25.00;93.70
40255;DHT22;25973;52.368;4.940;2023-06-14T06:37:59;25.50;92.50
40255;DHT22;25973;52.368;4.940;2023-06-14T06:40:26;26.50;92.00
40255;DHT22;25973;52.368;4.940;2023-06-14T06:42:51;27.50;90.60
40255;DHT22;25973;52.368;4.940;2023-06-14T06:45:17;28.50;90.10
40255;DHT22;25973;52.368;4.940;2023-06-14T06:47:42;29.70;87.10
40255;DHT22;25973;52.368;4.940;2023-06-14T06:50:08;30.20;84.80
40255;DHT22;25973;52.368;4.940;2023-06-14T06:52:34;29.90;84.10
40255;DHT22;25973;52.368;4.940;2023-06-14T06:54:59;29.70;83.30
40255;DHT22;25973;52.368;4.940;2023-06-14T06:57:25;29.90;83.20
40255;DHT22;25973;52.368;4.940;2023-06-14T06:59:51;29.70;83.50
40255;DHT22;25973;52.368;4.940;2023-06-14T07:02:17;30.40;81.90
40255;DHT22;25973;52.368;4.940;2023-06-14T07:04:43;31.10;81.30
40255;DHT22;25973;52.368;4.940;2023-06-14T07:07:08;31.30;79.90
40255;DHT22;25973;52.368;4.940;2023-06-14T07:09:35;31.20;80.30
40255;DHT22;25973;52.368;4.940;2023-06-14T07:12:00;31.80;79.30
40255;DHT22;25973;52.368;4.940;2023-06-14T07:14:26;32.00;77.90
40255;DHT22;25973;52.368;4.940;2023-06-14T07:16:52;32.20;78.00
40255;DHT22;25973;52.368;4.940;2023-06-14T07:19:17;32.00;77.20
40255;DHT22;25973;52.368;4.940;2023-06-14T07:21:43;31.80;77.60
40255;DHT22;25973;52.368;4.940;2023-06-14T07:24:08;32.10;76.90
40255;DHT22;25973;52.368;4.940;2023-06-14T07:26:34;32.10;76.70
40255;DHT22;25973;52.368;4.940;2023-06-14T07:29:01;32.50;76.60
40255;DHT22;25973;52.368;4.940;2023-06-14T07:31:26;32.90;76.50
40255;DHT22;25973;52.368;4.940;2023-06-14T07:33:52;33.20;75.80
40255;DHT22;25973;52.368;4.940;2023-06-14T07:36:18;33.60;75.50
40255;DHT22;25973;52.368;4.940;2023-06-14T07:38:44;34.20;75.30
40255;DHT22;25973;52.368;4.940;2023-06-14T07:41:10;34.90;73.30
40255;DHT22;25973;52.368;4.940;2023-06-14T07:43:35;34.90;71.90
40255;DHT22;25973;52.368;4.940;2023-06-14T07:46:01;34.80;72.00
40255;DHT22;25973;52.368;4.940;2023-06-14T07:48:27;34.80;72.30
40255;DHT22;25973;52.368;4.940;2023-06-14T07:50:53;35.00;71.70
40255;DHT22;25973;52.368;4.940;2023-06-14T07:53:19;34.70;71.10
40255;DHT22;25973;52.368;4.940;2023-06-14T07:55:44;34.30;71.50
40255;DHT22;25973;52.368;4.940;2023-06-14T07:58:12;34.20;71.30
40255;DHT22;25973;52.368;4.940;2023-06-14T08:00:38;33.60;72.30
40255;DHT22;25973;52.368;4.940;2023-06-14T08:03:03;33.50;71.20
40255;DHT22;25973;52.368;4.940;2023-06-14T08:05:29;34.50;71.70
40255;DHT22;25973;52.368;4.940;2023-06-14T08:07:55;34.60;69.20
40255;DHT22;25973;52.368;4.940;2023-06-14T08:10:22;34.60;69.30
40255;DHT22;25973;52.368;4.940;2023-06-14T08:12:47;34.80;69.40
40255;DHT22;25973;52.368;4.940;2023-06-14T08:15:16;34.90;69.20
40255;DHT22;25973;52.368;4.940;2023-06-14T08:17:43;35.20;69.10
40255;DHT22;25973;52.368;4.940;2023-06-14T08:20:09;35.40;67.60
40255;DHT22;25973;52.368;4.940;2023-06-14T08:22:36;35.30;67.20
40255;DHT22;25973;52.368;4.940;2023-06-14T08:25:01;35.40;66.00
40255;DHT22;25973;52.368;4.940;2023-06-14T08:27:27;34.60;65.90
40255;DHT22;25973;52.368;4.940;2023-06-14T08:29:53;34.10;66.50
40255;DHT22;25973;52.368;4.940;2023-06-14T08:32:19;33.90;66.30
40255;DHT22;25973;52.368;4.940;2023-06-14T08:34:44;33.20;66.40
40255;DHT22;25973;52.368;4.940;2023-06-14T08:37:10;33.00;66.60
40255;DHT22;25973;52.368;4.940;2023-06-14T08:39:36;32.80;67.20
40255;DHT22;25973;52.368;4.940;2023-06-14T08:42:03;33.00;66.30
40255;DHT22;25973;52.368;4.940;2023-06-14T08:44:29;32.60;66.80
40255;DHT22;25973;52.368;4.940;2023-06-14T08:46:59;32.90;66.40
40255;DHT22;25973;52.368;4.940;2023-06-14T08:49:25;32.40;65.60
40255;DHT22;25973;52.368;4.940;2023-06-14T08:51:59;32.10;65.40
40255;DHT22;25973;52.368;4.940;2023-06-14T08:54:28;31.80;65.50
40255;DHT22;25973;52.368;4.940;2023-06-14T08:56:56;31.30;66.30
40255;DHT22;25973;52.368;4.940;2023-06-14T08:59:30;31.10;66.10
40255;DHT22;25973;52.368;4.940;2023-06-14T09:01:59;30.90;66.40
40255;DHT22;25973;52.368;4.940;2023-06-14T09:04:25;30.60;67.60
40255;DHT22;25973;52.368;4.940;2023-06-14T09:06:55;30.80;66.80
40255;DHT22;25973;52.368;4.940;2023-06-14T09:09:21;30.90;66.40
40255;DHT22;25973;52.368;4.940;2023-06-14T09:11:51;30.70;66.50
40255;DHT22;25973;52.368;4.940;2023-06-14T09:14:18;30.60;67.50
40255;DHT22;25973;52.368;4.940;2023-06-14T09:16:44;30.20;67.90
40255;DHT22;25973;52.368;4.940;2023-06-14T09:19:20;30.20;68.00
40255;DHT22;25973;52.368;4.940;2023-06-14T09:21:47;29.90;67.70
40255;DHT22;25973;52.368;4.940;2023-06-14T09:24:14;30.10;67.90
40255;DHT22;25973;52.368;4.940;2023-06-14T09:26:40;30.20;67.10
40255;DHT22;25973;52.368;4.940;2023-06-14T09:29:06;30.50;67.60
40255;DHT22;25973;52.368;4.940;2023-06-14T09:31:32;30.80;67.10
40255;DHT22;25973;52.368;4.940;2023-06-14T09:33:58;31.60;67.50
40255;DHT22;25973;52.368;4.940;2023-06-14T09:36:27;31.90;67.30
40255;DHT22;25973;52.368;4.940;2023-06-14T09:39:03;31.70;66.40
40255;DHT22;25973;52.368;4.940;2023-06-14T09:41:33;31.60;66.80
40255;DHT22;25973;52.368;4.940;2023-06-14T09:44:00;30.80;66.20
40255;DHT22;25973;52.368;4.940;2023-06-14T09:46:27;30.50;66.50
40255;DHT22;25973;52.368;4.940;2023-06-14T09:48:53;30.20;65.10
40255;DHT22;25973;52.368;4.940;2023-06-14T09:51:19;30.00;67.30
40255;DHT22;25973;52.368;4.940;2023-06-14T09:53:49;29.90;66.50
40255;DHT22;25973;52.368;4.940;2023-06-14T09:56:23;29.90;67.60
40255;DHT22;25973;52.368;4.940;2023-06-14T09:58:55;29.60;66.30
40255;DHT22;25973;52.368;4.940;2023-06-14T10:01:22;29.30;67.00
40255;DHT22;25973;52.368;4.940;2023-06-14T10:03:50;29.00;67.80
40255;DHT22;25973;52.368;4.940;2023-06-14T10:06:17;28.70;67.70
40255;DHT22;25973;52.368;4.940;2023-06-14T10:08:43;28.70;68.10
40255;DHT22;25973;52.368;4.940;2023-06-14T10:11:12;28.40;67.60
40255;DHT22;25973;52.368;4.940;2023-06-14T10:13:38;28.00;67.90
40255;DHT22;25973;52.368;4.940;2023-06-14T10:16:12;27.90;69.90
40255;DHT22;25973;52.368;4.940;2023-06-14T10:19:13;27.80;69.00
40255;DHT22;25973;52.368;4.940;2023-06-14T10:21:33;27.80;70.30
40255;DHT22;25973;52.368;4.940;2023-06-14T10:24:05;28.10;71.20
40255;DHT22;25973;52.368;4.940;2023-06-14T10:26:32;27.80;70.90
40255;DHT22;25973;52.368;4.940;2023-06-14T10:29:00;27.80;71.20
40255;DHT22;25973;52.368;4.940;2023-06-14T10:31:45;27.90;70.30
40255;DHT22;25973;52.368;4.940;2023-06-14T10:34:30;27.80;71.30
40255;DHT22;25973;52.368;4.940;2023-06-14T10:37:06;27.80;70.00
40255;DHT22;25973;52.368;4.940;2023-06-14T10:39:38;27.60;70.90
40255;DHT22;25973;52.368;4.940;2023-06-14T10:42:05;27.50;71.30
40255;DHT22;25973;52.368;4.940;2023-06-14T10:44:50;27.40;71.70
40255;DHT22;25973;52.368;4.940;2023-06-14T10:47:21;27.10;72.90
40255;DHT22;25973;52.368;4.940;2023-06-14T10:49:56;26.90;72.20
40255;DHT22;25973;52.368;4.940;2023-06-14T10:52:25;26.90;71.90
40255;DHT22;25973;52.368;4.940;2023-06-14T10:57:32;26.60;72.20
40255;DHT22;25973;52.368;4.940;2023-06-14T11:00:02;26.70;73.00
40255;DHT22;25973;52.368;4.940;2023-06-14T11:10:37;26.50;72.80
40255;DHT22;25973;52.368;4.940;2023-06-14T11:13:03;26.40;72.40
40255;DHT22;25973;52.368;4.940;2023-06-14T11:15:29;26.40;72.20
40255;DHT22;25973;52.368;4.940;2023-06-14T11:18:16;26.30;71.00
40255;DHT22;25973;52.368;4.940;2023-06-14T11:20:46;26.30;71.90
40255;DHT22;25973;52.368;4.940;2023-06-14T11:23:12;26.40;73.60
40255;DHT22;25973;52.368;4.940;2023-06-14T11:25:38;26.40;74.40
40255;DHT22;25973;52.368;4.940;2023-06-14T11:28:03;26.40;74.40
40255;DHT22;25973;52.368;4.940;2023-06-14T11:30:29;26.40;75.40
40255;DHT22;25973;52.368;4.940;2023-06-14T11:32:55;26.40;73.70
40255;DHT22;25973;52.368;4.940;2023-06-14T11:35:24;26.30;74.30
40255;DHT22;25973;52.368;4.940;2023-06-14T11:37:54;26.40;74.60
40255;DHT22;25973;52.368;4.940;2023-06-14T11:40:26;26.40;72.70
40255;DHT22;25973;52.368;4.940;2023-06-14T11:43:00;26.30;74.00
40255;DHT22;25973;52.368;4.940;2023-06-14T11:45:26;26.40;74.60
40255;DHT22;25973;52.368;4.940;2023-06-14T11:47:54;26.50;73.80
40255;DHT22;25973;52.368;4.940;2023-06-14T11:50:22;26.50;74.20
40255;DHT22;25973;52.368;4.940;2023-06-14T11:52:58;26.50;73.20
40255;DHT22;25973;52.368;4.940;2023-06-14T11:55:25;26.40;71.80
40255;DHT22;25973;52.368;4.940;2023-06-14T11:57:53;26.20;71.70
40255;DHT22;25973;52.368;4.940;2023-06-14T12:00:19;26.10;72.40
40255;DHT22;25973;52.368;4.940;2023-06-14T12:02:53;26.00;72.90
40255;DHT22;25973;52.368;4.940;2023-06-14T12:05:21;25.90;72.90
40255;DHT22;25973;52.368;4.940;2023-06-14T12:07:47;25.80;73.00
40255;DHT22;25973;52.368;4.940;2023-06-14T12:10:14;25.80;72.80
40255;DHT22;25973;52.368;4.940;2023-06-14T12:12:41;25.70;73.40
40255;DHT22;25973;52.368;4.940;2023-06-14T12:15:08;25.60;75.80
40255;DHT22;25973;52.368;4.940;2023-06-14T12:17:36;25.60;75.90
40255;DHT22;25973;52.368;4.940;2023-06-14T12:20:09;25.50;75.80
40255;DHT22;25973;52.368;4.940;2023-06-14T12:22:54;25.50;75.10
40255;DHT22;25973;52.368;4.940;2023-06-14T12:25:33;25.40;74.70
40255;DHT22;25973;52.368;4.940;2023-06-14T12:28:06;25.40;75.70
40255;DHT22;25973;52.368;4.940;2023-06-14T12:30:32;25.30;75.30
40255;DHT22;25973;52.368;4.940;2023-06-14T12:32:58;25.30;76.20
40255;DHT22;25973;52.368;4.940;2023-06-14T12:35:23;25.30;76.10
40255;DHT22;25973;52.368;4.940;2023-06-14T12:37:49;25.30;77.10
40255;DHT22;25973;52.368;4.940;2023-06-14T12:40:14;25.20;75.90
40255;DHT22;25973;52.368;4.940;2023-06-14T12:42:41;25.20;75.50
40255;DHT22;25973;52.368;4.940;2023-06-14T12:45:07;25.20;76.90
40255;DHT22;25973;52.368;4.940;2023-06-14T12:47:33;25.10;76.20
40255;DHT22;25973;52.368;4.940;2023-06-14T12:49:58;25.10;78.20
40255;DHT22;25973;52.368;4.940;2023-06-14T12:52:24;25.10;77.00
40255;DHT22;25973;52.368;4.940;2023-06-14T12:54:50;25.00;76.60
40255;DHT22;25973;52.368;4.940;2023-06-14T12:57:16;25.00;75.80
40255;DHT22;25973;52.368;4.940;2023-06-14T12:59:41;25.00;76.40
40255;DHT22;25973;52.368;4.940;2023-06-14T13:02:14;25.00;76.00
40255;DHT22;25973;52.368;4.940;2023-06-14T13:04:40;25.10;76.10
40255;DHT22;25973;52.368;4.940;2023-06-14T13:07:06;25.00;77.10
40255;DHT22;25973;52.368;4.940;2023-06-14T13:09:32;25.00;76.30
40255;DHT22;25973;52.368;4.940;2023-06-14T13:11:57;24.90;77.10
40255;DHT22;25973;52.368;4.940;2023-06-14T13:14:23;25.00;77.10
40255;DHT22;25973;52.368;4.940;2023-06-14T13:16:48;25.00;76.80
40255;DHT22;25973;52.368;4.940;2023-06-14T13:19:14;25.00;76.90
40255;DHT22;25973;52.368;4.940;2023-06-14T13:21:39;24.90;76.00
40255;DHT22;25973;52.368;4.940;2023-06-14T13:24:05;24.90;75.60
40255;DHT22;25973;52.368;4.940;2023-06-14T13:26:32;25.00;75.70
40255;DHT22;25973;52.368;4.940;2023-06-14T13:28:57;25.00;75.70
40255;DHT22;25973;52.368;4.940;2023-06-14T13:31:23;25.00;75.50
40255;DHT22;25973;52.368;4.940;2023-06-14T13:33:48;25.00;75.70
40255;DHT22;25973;52.368;4.940;2023-06-14T13:36:14;25.00;76.10
40255;DHT22;25973;52.368;4.940;2023-06-14T13:38:39;25.10;76.40
40255;DHT22;25973;52.368;4.940;2023-06-14T13:41:05;25.10;76.10
40255;DHT22;25973;52.368;4.940;2023-06-14T13:43:30;25.00;76.00
40255;DHT22;25973;52.368;4.940;2023-06-14T13:45:56;25.00;75.60
40255;DHT22;25973;52.368;4.940;2023-06-14T13:48:22;25.00;76.60
40255;DHT22;25973;52.368;4.940;2023-06-14T13:50:47;25.00;76.00
40255;DHT22;25973;52.368;4.940;2023-06-14T13:53:13;24.90;75.50
40255;DHT22;25973;52.368;4.940;2023-06-14T13:55:39;24.90;75.10
40255;DHT22;25973;52.368;4.940;2023-06-14T13:58:05;24.90;75.10
40255;DHT22;25973;52.368;4.940;2023-06-14T14:00:30;24.80;74.20
40255;DHT22;25973;52.368;4.940;2023-06-14T14:02:56;24.80;73.20
40255;DHT22;25973;52.368;4.940;2023-06-14T14:05:22;24.80;74.20
40255;DHT22;25973;52.368;4.940;2023-06-14T14:07:53;24.80;75.30
40255;DHT22;25973;52.368;4.940;2023-06-14T14:10:20;24.80;75.10
40255;DHT22;25973;52.368;4.940;2023-06-14T14:12:45;24.80;76.40
40255;DHT22;25973;52.368;4.940;2023-06-14T14:15:12;24.80;76.60
40255;DHT22;25973;52.368;4.940;2023-06-14T14:17:40;24.80;75.00
40255;DHT22;25973;52.368;4.940;2023-06-14T14:20:06;24.80;74.20
40255;DHT22;25973;52.368;4.940;2023-06-14T14:22:32;24.80;73.80
40255;DHT22;25973;52.368;4.940;2023-06-14T14:24:58;24.80;73.50
40255;DHT22;25973;52.368;4.940;2023-06-14T14:27:23;24.70;73.40
40255;DHT22;25973;52.368;4.940;2023-06-14T14:29:49;24.70;72.70
40255;DHT22;25973;52.368;4.940;2023-06-14T14:32:14;24.70;75.60
40255;DHT22;25973;52.368;4.940;2023-06-14T14:34:40;24.80;76.30
40255;DHT22;25973;52.368;4.940;2023-06-14T14:37:06;24.70;73.20
40255;DHT22;25973;52.368;4.940;2023-06-14T14:39:31;24.70;74.30
40255;DHT22;25973;52.368;4.940;2023-06-14T14:41:57;24.80;74.30
40255;DHT22;25973;52.368;4.940;2023-06-14T14:44:22;24.80;74.00
40255;DHT22;25973;52.368;4.940;2023-06-14T14:46:51;24.80;74.00
40255;DHT22;25973;52.368;4.940;2023-06-14T14:49:16;24.80;74.20
40255;DHT22;25973;52.368;4.940;2023-06-14T14:51:42;24.80;74.60
40255;DHT22;25973;52.368;4.940;2023-06-14T14:54:08;24.80;75.70
40255;DHT22;25973;52.368;4.940;2023-06-14T14:56:33;24.80;77.10
40255;DHT22;25973;52.368;4.940;2023-06-14T14:59:00;24.80;77.30
40255;DHT22;25973;52.368;4.940;2023-06-14T15:01:26;24.80;74.20
40255;DHT22;25973;52.368;4.940;2023-06-14T15:03:51;24.80;75.80
40255;DHT22;25973;52.368;4.940;2023-06-14T15:06:17;24.90;75.40
40255;DHT22;25973;52.368;4.940;2023-06-14T15:08:43;24.90;74.60
40255;DHT22;25973;52.368;4.940;2023-06-14T15:11:09;24.90;75.70
40255;DHT22;25973;52.368;4.940;2023-06-14T15:13:34;24.90;75.20
40255;DHT22;25973;52.368;4.940;2023-06-14T15:16:00;24.90;76.00
40255;DHT22;25973;52.368;4.940;2023-06-14T15:18:25;25.00;75.20
40255;DHT22;25973;52.368;4.940;2023-06-14T15:20:51;24.90;74.50
40255;DHT22;25973;52.368;4.940;2023-06-14T15:23:16;24.90;75.20
40255;DHT22;25973;52.368;4.940;2023-06-14T15:25:45;24.90;75.40
40255;DHT22;25973;52.368;4.940;2023-06-14T15:28:12;24.90;75.20
40255;DHT22;25973;52.368;4.940;2023-06-14T15:30:37;24.90;76.20
40255;DHT22;25973;52.368;4.940;2023-06-14T15:33:03;24.90;77.80
40255;DHT22;25973;52.368;4.940;2023-06-14T15:35:28;24.90;77.00
40255;DHT22;25973;52.368;4.940;2023-06-14T15:37:54;24.90;76.00
40255;DHT22;25973;52.368;4.940;2023-06-14T15:40:20;24.80;76.10
40255;DHT22;25973;52.368;4.940;2023-06-14T15:42:45;24.90;77.30
40255;DHT22;25973;52.368;4.940;2023-06-14T15:45:11;24.80;77.40
40255;DHT22;25973;52.368;4.940;2023-06-14T15:47:37;24.80;77.20